createdAt,value
2023-02-02T10:41:01.593Z,3.10
2023-02-02T10:44:06.177Z,2.10
2023-02-02T10:46:55.108Z,2.42
2023-02-02T10:49:41.410Z,2.88
2023-02-02T10:52:33.620Z,2.22
2023-02-02T10:55:28.726Z,3.37
2023-02-02T12:43:39.505Z,2.40
2023-02-02T17:53:17.372Z,5.53
2023-02-02T17:56:03.324Z,5.70
2023-02-02T17:58:49.057Z,6.13
2023-02-02T18:01:39.389Z,6.95
2023-02-02T18:04:26.890Z,7.38
2023-02-02T18:07:12.542Z,7.05
2023-02-02T18:09:58.283Z,7.43
2023-02-02T18:12:43.988Z,7.18
2023-02-02T18:15:29.851Z,7.53
2023-02-02T18:18:17.326Z,7.70
2023-02-02T18:21:07.359Z,7.82
2023-02-02T18:23:53.216Z,6.47
2023-02-02T18:26:39.656Z,6.95
2023-02-02T18:29:25.565Z,7.70
2023-02-02T18:32:11.499Z,7.15
2023-02-02T18:34:58.835Z,6.70
2023-02-02T18:37:44.442Z,6.03
2023-02-02T18:40:30.350Z,5.63
2023-02-02T18:43:16.111Z,6.10
2023-02-02T18:46:04.593Z,5.90
2023-02-02T18:48:50.236Z,5.25
2023-02-02T18:51:37.107Z,5.10
2023-02-02T18:54:22.762Z,5.95
2023-02-02T18:57:08.330Z,6.05
2023-02-02T18:59:54.257Z,5.90
2023-02-02T19:02:40.038Z,5.72
2023-02-02T19:05:44.777Z,4.88
2023-02-02T19:08:33.723Z,5.38
2023-02-02T19:11:22.216Z,5.13
2023-02-02T19:14:14.089Z,5.25
2023-02-02T19:17:08.352Z,5.32
2023-02-02T19:19:58.826Z,5.32
2023-02-02T19:22:45.153Z,5.85
2023-02-02T19:25:32.500Z,5.28
2023-02-02T19:28:22.490Z,5.15
2023-02-02T19:31:12.949Z,4.75
2023-02-02T19:33:58.571Z,5.47
2023-02-02T19:36:46.877Z,5.35
2023-02-02T19:39:32.649Z,5.05
2023-02-02T19:42:19.756Z,4.72
2023-02-02T19:45:20.606Z,4.93
2023-02-02T19:48:15.150Z,4.25
2023-02-02T19:51:21.298Z,4.38
2023-02-02T19:54:25.897Z,4.80
2023-02-02T19:57:21.107Z,4.35
2023-02-02T20:00:20.111Z,4.88
2023-02-02T20:03:07.547Z,4.28
2023-02-02T20:05:55.847Z,4.72
2023-02-02T20:08:43.904Z,5.07
2023-02-02T20:11:32.839Z,4.63
2023-02-02T20:14:29.264Z,4.20
2023-02-02T20:17:26.091Z,4.05
2023-02-02T20:20:25.432Z,4.70
2023-02-02T20:23:22.159Z,3.88
2023-02-02T20:26:22.342Z,3.95
2023-02-02T20:29:16.772Z,4.57
2023-02-02T20:32:05.130Z,4.45
2023-02-02T20:34:54.065Z,3.92
2023-02-02T20:37:40.211Z,3.53
2023-02-02T20:40:28.004Z,3.53
2023-02-02T20:43:15.758Z,3.70
2023-02-02T20:46:01.733Z,3.38
2023-02-02T20:48:49.020Z,3.72
2023-02-02T20:51:40.515Z,3.67
2023-02-02T20:54:26.541Z,4.07
2023-02-02T20:57:12.578Z,3.72
2023-02-02T20:59:59.676Z,4.00
2023-02-02T21:19:22.182Z,4.30
2023-02-02T21:38:46.900Z,3.75
2023-02-02T21:41:34.293Z,3.47
2023-02-02T21:44:22.339Z,3.90
2023-02-02T21:47:25.254Z,4.35
2023-02-02T21:50:16.129Z,3.20
2023-02-02T21:53:19.101Z,3.10
2023-02-02T21:56:20.941Z,3.28
2023-02-02T21:59:15.455Z,3.95
2023-02-02T22:02:32.040Z,3.78
2023-02-02T22:05:22.970Z,3.88
2023-02-02T22:08:25.116Z,3.33
2023-02-02T22:11:22.363Z,6.75
2023-02-02T22:14:22.555Z,3.38
2023-02-02T22:17:23.730Z,5.03
2023-02-02T22:20:23.801Z,3.42
2023-02-02T22:23:12.229Z,3.73
2023-02-02T22:25:59.054Z,4.05
2023-02-02T22:28:44.517Z,3.78
2023-02-02T22:31:31.577Z,3.20
2023-02-02T22:34:17.318Z,3.70
2023-02-02T22:37:03.500Z,3.58
2023-02-02T22:39:48.995Z,3.72
2023-02-02T22:42:34.904Z,3.55
2023-02-02T22:45:20.555Z,3.45
2023-02-02T22:48:07.774Z,3.35
2023-02-02T22:57:34.362Z,3.50
2023-02-02T23:00:22.018Z,3.20
2023-02-02T23:03:07.511Z,3.53
2023-02-02T23:11:26.087Z,3.40
2023-02-02T23:33:32.552Z,3.47
2023-02-02T23:36:18.072Z,2.70
2023-02-02T23:41:50.110Z,2.70
